createdAt,value
2018-06-28T00:00:20.223Z,1020.31
2018-06-28T00:01:20.219Z,1020.31
2018-06-28T00:02:20.278Z,1020.29
2018-06-28T00:03:20.243Z,1020.27
2018-06-28T00:04:20.259Z,1020.28
2018-06-28T00:05:20.264Z,1020.25
2018-06-28T00:06:20.317Z,1020.26
2018-06-28T00:07:20.329Z,1020.26
2018-06-28T00:08:20.365Z,1020.27
2018-06-28T00:09:20.327Z,1020.24
2018-06-28T00:10:20.351Z,1020.26
2018-06-28T00:11:20.344Z,1020.22
2018-06-28T00:12:20.363Z,1020.24
2018-06-28T00:13:20.438Z,1020.20
2018-06-28T00:14:20.396Z,1020.18
2018-06-28T00:15:20.408Z,1020.24
2018-06-28T00:16:20.415Z,1020.22
2018-06-28T00:17:20.444Z,1020.23
2018-06-28T00:18:20.480Z,1020.25
2018-06-28T00:19:20.457Z,1020.24
2018-06-28T00:20:20.473Z,1020.14
2018-06-28T00:21:20.475Z,1020.11
2018-06-28T00:22:20.489Z,1020.14
2018-06-28T00:23:20.539Z,1020.17
2018-06-28T00:24:20.534Z,1020.14
2018-06-28T00:25:20.552Z,1020.16
2018-06-28T00:26:20.559Z,1020.15
2018-06-28T00:27:20.558Z,1020.14
2018-06-28T00:28:20.622Z,1020.11
2018-06-28T00:29:20.632Z,1020.15
2018-06-28T00:30:20.652Z,1020.14
2018-06-28T00:31:20.621Z,1020.14
2018-06-28T00:32:20.643Z,1020.10
2018-06-28T00:33:20.636Z,1020.11
2018-06-28T00:34:20.661Z,1020.11
2018-06-28T00:35:20.713Z,1020.11
2018-06-28T00:36:20.680Z,1020.09
2018-06-28T00:37:20.687Z,1020.11
2018-06-28T00:38:20.698Z,1020.20
2018-06-28T00:39:20.724Z,1020.13
2018-06-28T00:40:20.759Z,1020.18
2018-06-28T00:41:20.758Z,1020.21
2018-06-28T00:42:20.775Z,1020.15
2018-06-28T00:43:20.767Z,1020.15
2018-06-28T00:44:20.786Z,1020.19
2018-06-28T00:45:20.825Z,1020.16
2018-06-28T00:46:20.870Z,1020.12
2018-06-28T00:47:20.817Z,1020.12
2018-06-28T00:48:20.851Z,1020.15
2018-06-28T00:49:20.852Z,1020.17
2018-06-28T00:50:20.889Z,1020.11
2018-06-28T00:51:20.898Z,1020.13
2018-06-28T00:52:20.916Z,1020.14
2018-06-28T00:53:20.935Z,1020.14
2018-06-28T00:54:20.912Z,1020.11
2018-06-28T00:55:20.924Z,1020.10
2018-06-28T00:56:20.922Z,1020.08
2018-06-28T00:57:20.960Z,1020.08
2018-06-28T00:58:21.004Z,1020.11
2018-06-28T00:59:20.966Z,1020.09
2018-06-28T01:00:20.998Z,1020.08
2018-06-28T01:01:21.005Z,1020.06
2018-06-28T01:02:21.053Z,1020.07
2018-06-28T01:03:21.063Z,1020.02
2018-06-28T01:04:21.025Z,1020.00
2018-06-28T01:05:21.036Z,1019.97
2018-06-28T01:06:21.066Z,1019.96
2018-06-28T01:07:21.115Z,1019.95
2018-06-28T01:08:21.111Z,1019.96
2018-06-28T01:09:21.095Z,1019.93
2018-06-28T01:10:21.103Z,1019.92
2018-06-28T01:11:21.127Z,1019.92
2018-06-28T01:12:21.192Z,1019.88
2018-06-28T01:13:21.149Z,1019.92
2018-06-28T01:14:21.165Z,1019.94
2018-06-28T01:15:21.175Z,1019.88
2018-06-28T01:16:21.207Z,1019.93
2018-06-28T01:17:21.224Z,1019.94
2018-06-28T01:18:21.238Z,1019.87
2018-06-28T01:19:21.222Z,1019.90
2018-06-28T01:20:21.239Z,1019.87
2018-06-28T01:21:21.252Z,1019.87
2018-06-28T01:22:21.266Z,1019.87
2018-06-28T01:23:21.326Z,1019.84
2018-06-28T01:24:21.290Z,1019.84
2018-06-28T01:25:21.343Z,1019.81
2018-06-28T01:26:21.336Z,1019.81
2018-06-28T01:27:21.344Z,1019.82
2018-06-28T01:28:21.343Z,1019.81
2018-06-28T01:29:21.345Z,1019.84
2018-06-28T01:30:21.410Z,1019.79
2018-06-28T01:31:21.374Z,1019.81
2018-06-28T01:32:21.389Z,1019.77
2018-06-28T01:33:21.395Z,1019.80
2018-06-28T01:34:21.435Z,1019.82
2018-06-28T01:35:21.473Z,1019.80
2018-06-28T01:36:21.430Z,1019.79
2018-06-28T01:37:21.455Z,1019.74
2018-06-28T01:38:21.483Z,1019.78
2018-06-28T01:39:21.479Z,1019.77
2018-06-28T01:40:21.546Z,1019.78
2018-06-28T01:41:21.505Z,1019.82
2018-06-28T01:42:21.513Z,1019.76
2018-06-28T01:43:21.530Z,1019.81
2018-06-28T01:44:21.535Z,1019.79
2018-06-28T01:45:21.592Z,1019.82
2018-06-28T01:46:21.566Z,1019.80
2018-06-28T01:47:21.576Z,1019.79
2018-06-28T01:48:21.594Z,1019.76
2018-06-28T01:49:21.607Z,1019.79
2018-06-28T01:50:21.659Z,1019.72
2018-06-28T01:51:21.622Z,1019.74
2018-06-28T01:52:21.641Z,1019.72
2018-06-28T01:53:21.651Z,1019.70
2018-06-28T01:54:21.661Z,1019.72
2018-06-28T01:55:21.709Z,1019.70
2018-06-28T01:56:21.705Z,1019.70
2018-06-28T01:57:21.701Z,1019.68
2018-06-28T01:58:21.716Z,1019.73
2018-06-28T01:59:21.720Z,1019.73
2018-06-28T02:00:21.778Z,1019.71
2018-06-28T02:01:21.794Z,1019.68
2018-06-28T02:02:21.762Z,1019.64
2018-06-28T02:03:21.786Z,1019.69
2018-06-28T02:04:21.816Z,1019.65
2018-06-28T02:05:21.810Z,1019.66
2018-06-28T02:06:21.845Z,1019.63
2018-06-28T02:07:21.824Z,1019.58
2018-06-28T02:08:21.838Z,1019.63
2018-06-28T02:09:21.852Z,1019.59
2018-06-28T02:10:21.855Z,1019.60
2018-06-28T02:11:21.928Z,1019.58
2018-06-28T02:12:21.902Z,1019.57
2018-06-28T02:13:21.891Z,1019.53
2018-06-28T02:14:21.923Z,1019.53
2018-06-28T02:15:21.939Z,1019.56
2018-06-28T02:16:21.982Z,1019.54
2018-06-28T02:17:21.952Z,1019.55
2018-06-28T02:18:21.968Z,1019.52
2018-06-28T02:19:21.983Z,1019.53
2018-06-28T02:20:21.993Z,1019.52
2018-06-28T02:21:22.032Z,1019.48
2018-06-28T02:22:22.084Z,1019.49
2018-06-28T02:23:22.020Z,1019.44
2018-06-28T02:24:22.046Z,1019.49
2018-06-28T02:25:22.112Z,1019.49
2018-06-28T02:26:22.095Z,1019.44
2018-06-28T02:27:22.121Z,1019.45
2018-06-28T02:28:22.081Z,1019.49
2018-06-28T02:29:22.104Z,1019.46
2018-06-28T02:30:22.114Z,1019.46
2018-06-28T02:31:22.122Z,1019.43
2018-06-28T02:32:22.163Z,1019.41
2018-06-28T02:33:22.161Z,1019.41
2018-06-28T02:34:22.189Z,1019.48
2018-06-28T02:35:22.176Z,1019.41
2018-06-28T02:36:22.196Z,1019.45
2018-06-28T02:37:22.217Z,1019.48
2018-06-28T02:38:22.254Z,1019.44
2018-06-28T02:39:22.256Z,1019.41
2018-06-28T02:40:22.237Z,1019.44
2018-06-28T02:41:22.249Z,1019.43
2018-06-28T02:42:22.290Z,1019.40
2018-06-28T02:43:22.279Z,1019.39
2018-06-28T02:44:22.284Z,1019.37
2018-06-28T02:45:22.345Z,1019.35
2018-06-28T02:46:22.318Z,1019.35
2018-06-28T02:47:22.314Z,1019.29
2018-06-28T02:48:22.399Z,1019.32
2018-06-28T02:49:22.354Z,1019.33
2018-06-28T02:50:22.435Z,1019.32
2018-06-28T02:51:22.371Z,1019.32
2018-06-28T02:52:22.387Z,1019.31
2018-06-28T02:53:22.451Z,1019.27
2018-06-28T02:54:22.424Z,1019.30
2018-06-28T02:55:22.446Z,1019.31
2018-06-28T02:56:22.435Z,1019.30
2018-06-28T02:57:22.444Z,1019.31
2018-06-28T02:58:22.452Z,1019.29
2018-06-28T02:59:22.518Z,1019.30
2018-06-28T03:00:22.479Z,1019.28
2018-06-28T03:01:22.506Z,1019.26
2018-06-28T03:02:22.519Z,1019.19
2018-06-28T03:03:22.565Z,1019.18
2018-06-28T03:04:22.564Z,1019.16
2018-06-28T03:05:22.571Z,1019.16
2018-06-28T03:06:22.608Z,1019.20
2018-06-28T03:07:22.565Z,1019.17
2018-06-28T03:08:22.580Z,1019.20
2018-06-28T03:09:22.598Z,1019.24
2018-06-28T03:10:22.601Z,1019.23
2018-06-28T03:11:22.647Z,1019.26
2018-06-28T03:12:22.662Z,1019.27
2018-06-28T03:13:22.643Z,1019.27
2018-06-28T03:14:22.691Z,1019.29
2018-06-28T03:15:22.676Z,1019.27
2018-06-28T03:16:22.691Z,1019.25
2018-06-28T03:17:22.739Z,1019.23
2018-06-28T03:18:22.693Z,1019.25
2018-06-28T03:19:22.724Z,1019.26
2018-06-28T03:20:22.735Z,1019.30
2018-06-28T03:21:22.773Z,1019.25
2018-06-28T03:22:22.784Z,1019.29
2018-06-28T03:23:22.770Z,1019.29
2018-06-28T03:24:22.773Z,1019.30
2018-06-28T03:25:22.813Z,1019.30
2018-06-28T03:26:22.812Z,1019.28
2018-06-28T03:27:22.855Z,1019.28
2018-06-28T03:28:22.822Z,1019.25
2018-06-28T03:29:22.872Z,1019.23
2018-06-28T03:30:22.858Z,1019.22
2018-06-28T03:31:22.884Z,1019.27
2018-06-28T03:32:22.898Z,1019.24
2018-06-28T03:33:22.900Z,1019.28
2018-06-28T03:34:22.945Z,1019.28
2018-06-28T03:35:22.917Z,1019.29
2018-06-28T03:36:22.940Z,1019.28
2018-06-28T03:37:22.926Z,1019.29
2018-06-28T03:38:22.958Z,1019.31
2018-06-28T03:39:23.011Z,1019.31
2018-06-28T03:40:22.975Z,1019.34
2018-06-28T03:41:22.982Z,1019.29
2018-06-28T03:42:23.015Z,1019.27
2018-06-28T03:43:23.033Z,1019.25
2018-06-28T03:44:23.037Z,1019.25
2018-06-28T03:45:23.064Z,1019.26
2018-06-28T03:46:23.053Z,1019.18
2018-06-28T03:47:23.090Z,1019.23
2018-06-28T03:48:23.079Z,1019.22
2018-06-28T03:49:23.091Z,1019.21
2018-06-28T03:50:23.160Z,1019.25
2018-06-28T03:51:23.109Z,1019.30
2018-06-28T03:52:25.840Z,1019.25
2018-06-28T03:53:23.147Z,1019.23
2018-06-28T03:54:23.159Z,1019.24
2018-06-28T03:55:23.196Z,1019.23
2018-06-28T03:56:23.180Z,1019.26
2018-06-28T03:57:23.193Z,1019.28
2018-06-28T03:58:23.217Z,1019.26
2018-06-28T03:59:23.248Z,1019.29
2018-06-28T04:00:23.233Z,1019.30
2018-06-28T04:01:23.252Z,1019.29
2018-06-28T04:02:23.261Z,1019.29
2018-06-28T04:03:23.309Z,1019.24
2018-06-28T04:04:23.282Z,1019.26
2018-06-28T04:05:23.287Z,1019.24
2018-06-28T04:06:23.297Z,1019.28
2018-06-28T04:07:23.312Z,1019.28
2018-06-28T04:08:23.376Z,1019.25
2018-06-28T04:09:23.363Z,1019.29
2018-06-28T04:10:23.357Z,1019.31
2018-06-28T04:11:23.369Z,1019.32
2018-06-28T04:12:23.390Z,1019.38
2018-06-28T04:13:23.442Z,1019.34
2018-06-28T04:14:23.417Z,1019.35
2018-06-28T04:15:23.410Z,1019.32
2018-06-28T04:16:23.471Z,1019.33
2018-06-28T04:17:23.431Z,1019.32
2018-06-28T04:18:23.449Z,1019.33
2018-06-28T04:19:23.472Z,1019.36
2018-06-28T04:20:23.548Z,1019.32
2018-06-28T04:21:23.498Z,1019.29
2018-06-28T04:22:23.512Z,1019.30
2018-06-28T04:23:23.515Z,1019.33
2018-06-28T04:24:23.527Z,1019.32
2018-06-28T04:25:23.580Z,1019.31
2018-06-28T04:26:23.548Z,1019.37
2018-06-28T04:27:23.641Z,1019.39
2018-06-28T04:28:23.575Z,1019.37
2018-06-28T04:29:23.607Z,1019.41
2018-06-28T04:30:23.633Z,1019.37
2018-06-28T04:31:23.633Z,1019.38
2018-06-28T04:32:23.628Z,1019.36
2018-06-28T04:33:23.750Z,1019.36
2018-06-28T04:34:23.655Z,1019.41
2018-06-28T04:35:23.700Z,1019.45
2018-06-28T04:36:23.694Z,1019.47
2018-06-28T04:37:23.684Z,1019.48
2018-06-28T04:38:23.738Z,1019.47
2018-06-28T04:39:23.724Z,1019.51
2018-06-28T04:40:23.742Z,1019.47
2018-06-28T04:41:23.739Z,1019.41
2018-06-28T04:42:23.778Z,1019.43
2018-06-28T04:43:23.810Z,1019.42
2018-06-28T04:44:23.789Z,1019.49
2018-06-28T04:45:23.799Z,1019.42
2018-06-28T04:46:23.840Z,1019.44
2018-06-28T04:47:23.836Z,1019.44
2018-06-28T04:48:23.865Z,1019.41
2018-06-28T04:49:23.855Z,1019.42
2018-06-28T04:50:23.894Z,1019.44
2018-06-28T04:51:23.874Z,1019.48
2018-06-28T04:52:23.879Z,1019.41
2018-06-28T04:53:23.903Z,1019.46
2018-06-28T04:54:23.931Z,1019.36
2018-06-28T04:55:23.966Z,1019.41
2018-06-28T04:56:23.951Z,1019.41
2018-06-28T04:57:23.971Z,1019.38
2018-06-28T04:58:23.966Z,1019.32
2018-06-28T04:59:23.979Z,1019.30
2018-06-28T05:00:24.045Z,1019.30
2018-06-28T05:01:24.158Z,1019.26
2018-06-28T05:02:24.037Z,1019.30
2018-06-28T05:03:24.053Z,1019.18
2018-06-28T05:04:24.095Z,1019.34
2018-06-28T05:05:24.069Z,1019.30
2018-06-28T05:06:24.073Z,1019.33
2018-06-28T05:07:24.089Z,1019.25
2018-06-28T05:08:24.133Z,1019.32
2018-06-28T05:09:24.148Z,1019.44
2018-06-28T05:10:24.138Z,1019.32
2018-06-28T05:11:24.146Z,1019.32
2018-06-28T05:12:24.194Z,1019.39
2018-06-28T05:13:24.220Z,1019.41
2018-06-28T05:14:24.203Z,1019.42
2018-06-28T05:15:24.216Z,1019.51
2018-06-28T05:16:24.216Z,1019.47
2018-06-28T05:17:24.244Z,1019.36
2018-06-28T05:18:24.279Z,1019.38
2018-06-28T05:19:24.296Z,1019.46
2018-06-28T05:20:24.300Z,1019.46
2018-06-28T05:21:24.332Z,1019.49
2018-06-28T05:22:24.311Z,1019.42
2018-06-28T05:23:24.345Z,1019.41
2018-06-28T05:24:24.328Z,1019.44
2018-06-28T05:25:24.351Z,1019.47
2018-06-28T05:26:24.404Z,1019.46
2018-06-28T05:27:24.417Z,1019.47
2018-06-28T05:28:24.461Z,1019.59
2018-06-28T05:29:24.447Z,1019.51
2018-06-28T05:30:24.434Z,1019.49
2018-06-28T05:31:24.449Z,1019.49
2018-06-28T05:32:24.451Z,1019.41
2018-06-28T05:33:24.471Z,1019.40
2018-06-28T05:34:24.502Z,1019.32
2018-06-28T05:35:24.505Z,1019.33
2018-06-28T05:36:24.527Z,1019.39
2018-06-28T05:37:24.534Z,1019.37
2018-06-28T05:38:24.603Z,1019.33
2018-06-28T05:39:24.608Z,1019.39
2018-06-28T05:40:24.599Z,1019.30
2018-06-28T05:41:24.586Z,1019.24
2018-06-28T05:42:24.610Z,1019.27
2018-06-28T05:43:24.687Z,1019.27
2018-06-28T05:44:24.708Z,1019.24
2018-06-28T05:45:24.675Z,1019.18
2018-06-28T05:46:24.675Z,1019.20
2018-06-28T05:47:24.687Z,1019.16
2018-06-28T05:48:24.702Z,1019.19
2018-06-28T05:49:24.770Z,1019.14
2018-06-28T05:50:24.728Z,1019.16
2018-06-28T05:51:24.758Z,1019.11
2018-06-28T05:52:24.856Z,1019.15
2018-06-28T05:53:24.833Z,1019.13
2018-06-28T05:54:24.828Z,1019.09
2018-06-28T05:55:24.899Z,1019.10
2018-06-28T05:56:24.837Z,1019.13
2018-06-28T05:57:24.909Z,1019.07
2018-06-28T05:58:24.871Z,1019.09
2018-06-28T05:59:24.962Z,1019.03
2018-06-28T06:00:24.893Z,1019.04
2018-06-28T06:01:24.970Z,1019.03
2018-06-28T06:02:24.972Z,1019.16
2018-06-28T06:03:24.974Z,1019.03
2018-06-28T06:04:25.042Z,1019.06
2018-06-28T06:05:25.006Z,1019.04
2018-06-28T06:06:24.982Z,1019.02
2018-06-28T06:07:25.045Z,1019.04
2018-06-28T06:08:25.036Z,1018.99
2018-06-28T06:09:25.053Z,1018.97
2018-06-28T06:10:25.182Z,1018.99
2018-06-28T06:11:25.053Z,1018.91
2018-06-28T06:12:25.091Z,1019.02
2018-06-28T06:13:25.087Z,1018.98
2018-06-28T06:14:25.117Z,1018.99
2018-06-28T06:15:25.159Z,1018.95
2018-06-28T06:16:25.164Z,1018.93
2018-06-28T06:17:25.146Z,1019.02
2018-06-28T06:18:25.157Z,1018.95
2018-06-28T06:19:25.163Z,1018.92
2018-06-28T06:20:25.288Z,1018.91
2018-06-28T06:21:25.230Z,1018.90
2018-06-28T06:22:25.276Z,1018.97
2018-06-28T06:23:25.236Z,1019.00
2018-06-28T06:24:25.248Z,1018.88
2018-06-28T06:25:25.262Z,1018.92
2018-06-28T06:26:25.300Z,1018.87
2018-06-28T06:27:25.310Z,1018.89
2018-06-28T06:28:25.338Z,1018.91
2018-06-28T06:29:25.327Z,1018.89
2018-06-28T06:30:25.410Z,1018.89
2018-06-28T06:31:25.368Z,1018.93
2018-06-28T06:32:25.381Z,1018.95
2018-06-28T06:33:25.364Z,1018.82
2018-06-28T06:34:25.425Z,1018.83
2018-06-28T06:35:25.389Z,1018.83
2018-06-28T06:36:25.439Z,1018.79
2018-06-28T06:37:25.426Z,1018.86
2018-06-28T06:38:25.439Z,1018.90
2018-06-28T06:39:25.468Z,1018.73
2018-06-28T06:40:25.467Z,1018.84
2018-06-28T06:41:25.471Z,1018.84
2018-06-28T06:42:25.495Z,1018.87
2018-06-28T06:43:25.727Z,1018.85
2018-06-28T06:44:25.532Z,1018.84
2018-06-28T06:45:25.560Z,1018.82
2018-06-28T06:46:25.652Z,1018.79
2018-06-28T06:47:25.572Z,1018.86
2018-06-28T06:48:25.573Z,1018.79
2018-06-28T06:49:25.628Z,1018.72
2018-06-28T06:50:25.648Z,1018.76
2018-06-28T06:51:25.640Z,1018.79
2018-06-28T06:52:25.647Z,1018.79
2018-06-28T06:53:25.652Z,1018.78
2018-06-28T06:54:25.676Z,1018.86
2018-06-28T06:55:25.713Z,1018.73
2018-06-28T06:56:25.942Z,1018.70
2018-06-28T06:57:25.702Z,1018.72
2018-06-28T06:58:25.716Z,1018.70
2018-06-28T06:59:25.736Z,1018.63
2018-06-28T07:00:25.769Z,1018.59
2018-06-28T07:01:25.773Z,1018.62
2018-06-28T07:02:25.812Z,1018.55
2018-06-28T07:03:25.814Z,1018.56
2018-06-28T07:04:25.865Z,1018.57
2018-06-28T07:05:25.841Z,1018.58
2018-06-28T07:06:25.838Z,1018.53
2018-06-28T07:07:25.886Z,1018.52
2018-06-28T07:08:25.868Z,1018.47
2018-06-28T07:09:25.910Z,1018.50
2018-06-28T07:10:26.028Z,1018.47
2018-06-28T07:11:25.900Z,1018.46
2018-06-28T07:12:25.937Z,1018.46
2018-06-28T07:13:25.959Z,1018.47
2018-06-28T07:14:25.943Z,1018.43
2018-06-28T07:15:25.972Z,1018.38
2018-06-28T07:16:25.956Z,1018.37
2018-06-28T07:17:25.985Z,1018.33
2018-06-28T07:18:26.029Z,1018.52
2018-06-28T07:19:26.002Z,1018.38
2018-06-28T07:20:26.064Z,1018.37
2018-06-28T07:21:26.057Z,1018.37
2018-06-28T07:22:26.111Z,1018.45
2018-06-28T07:23:26.124Z,1018.32
2018-06-28T07:24:26.134Z,1018.35
2018-06-28T07:25:26.095Z,1018.32
2018-06-28T07:26:26.136Z,1018.34
2018-06-28T07:27:26.120Z,1018.30
2018-06-28T07:28:26.159Z,1018.24
2018-06-28T07:29:26.180Z,1018.27
2018-06-28T07:30:26.169Z,1018.30
2018-06-28T07:31:26.208Z,1018.23
2018-06-28T07:32:26.194Z,1018.34
2018-06-28T07:33:26.212Z,1018.22
2018-06-28T07:34:26.247Z,1018.25
2018-06-28T07:35:26.263Z,1018.21
2018-06-28T07:36:26.292Z,1018.28
2018-06-28T07:37:26.302Z,1018.29
2018-06-28T07:38:26.289Z,1018.20
2018-06-28T07:39:26.300Z,1018.19
2018-06-28T07:40:26.304Z,1018.21
2018-06-28T07:41:26.354Z,1018.20
2018-06-28T07:42:26.388Z,1018.20
2018-06-28T07:43:26.361Z,1018.18
2018-06-28T07:44:26.368Z,1018.08
2018-06-28T07:45:26.402Z,1018.12
2018-06-28T07:46:26.429Z,1017.99
2018-06-28T07:47:26.407Z,1018.04
2018-06-28T07:48:26.426Z,1018.00
2018-06-28T07:49:26.456Z,1018.02
2018-06-28T07:50:26.504Z,1018.03
2018-06-28T07:51:26.471Z,1018.01
2018-06-28T07:52:26.484Z,1017.99
2018-06-28T07:53:26.490Z,1018.03
2018-06-28T07:54:26.510Z,1018.07
2018-06-28T07:55:26.597Z,1017.98
2018-06-28T07:56:26.555Z,1017.96
2018-06-28T07:57:26.615Z,1017.98
2018-06-28T07:58:26.560Z,1017.94
2018-06-28T07:59:26.588Z,1017.94
2018-06-28T08:00:26.615Z,1018.08
2018-06-28T08:01:26.629Z,1017.94
2018-06-28T08:02:26.655Z,1017.95
2018-06-28T08:03:26.634Z,1017.97
2018-06-28T08:04:26.664Z,1017.94
2018-06-28T08:05:26.680Z,1017.91
2018-06-28T08:06:26.680Z,1017.91
2018-06-28T08:07:26.748Z,1017.99
2018-06-28T08:08:26.751Z,1017.95
2018-06-28T08:09:26.721Z,1017.94
2018-06-28T08:10:26.758Z,1017.88
2018-06-28T08:11:26.759Z,1017.93
2018-06-28T08:12:26.804Z,1017.89
2018-06-28T08:13:26.791Z,1017.83
2018-06-28T08:14:26.820Z,1017.93
2018-06-28T08:15:26.807Z,1017.93
2018-06-28T08:16:26.871Z,1017.96
2018-06-28T08:17:26.840Z,1017.84
2018-06-28T08:18:26.889Z,1017.94
2018-06-28T08:19:26.897Z,1017.85
2018-06-28T08:20:26.920Z,1017.83
2018-06-28T08:21:26.966Z,1017.81
2018-06-28T08:22:26.923Z,1017.88
2018-06-28T08:23:26.926Z,1017.92
2018-06-28T08:24:26.949Z,1017.87
2018-06-28T08:25:27.005Z,1017.83
2018-06-28T08:26:26.983Z,1017.90
2018-06-28T08:27:26.997Z,1017.77
2018-06-28T08:28:27.010Z,1017.79
2018-06-28T08:29:27.029Z,1017.85
2018-06-28T08:30:27.065Z,1017.86
2018-06-28T08:31:27.133Z,1017.89
2018-06-28T08:32:27.080Z,1017.80
2018-06-28T08:33:27.091Z,1017.82
2018-06-28T08:34:27.093Z,1017.81
2018-06-28T08:35:27.108Z,1017.85
2018-06-28T08:36:27.159Z,1017.79
2018-06-28T08:37:27.131Z,1017.89
2018-06-28T08:38:27.181Z,1017.85
2018-06-28T08:39:27.172Z,1017.90
2018-06-28T08:40:27.182Z,1017.83
2018-06-28T08:41:27.237Z,1017.76
2018-06-28T08:42:27.284Z,1017.71
2018-06-28T08:43:27.216Z,1017.73
2018-06-28T08:44:27.261Z,1017.79
2018-06-28T08:45:27.264Z,1017.78
2018-06-28T08:46:27.290Z,1017.92
2018-06-28T08:47:27.283Z,1017.72
2018-06-28T08:48:27.304Z,1017.80
2018-06-28T08:49:27.341Z,1017.81
2018-06-28T08:50:27.344Z,1017.69
2018-06-28T08:51:27.384Z,1017.71
2018-06-28T08:52:27.419Z,1017.70
2018-06-28T08:53:27.392Z,1017.65
2018-06-28T08:54:27.402Z,1017.61
2018-06-28T08:55:27.414Z,1017.70
2018-06-28T08:56:27.425Z,1017.65
2018-06-28T08:57:27.515Z,1017.70
2018-06-28T08:58:27.463Z,1017.63
2018-06-28T08:59:27.478Z,1017.66
2018-06-28T09:00:27.478Z,1017.60
2018-06-28T09:01:27.485Z,1017.59
2018-06-28T09:02:27.568Z,1017.63
2018-06-28T09:03:27.546Z,1017.84
2018-06-28T09:04:27.552Z,1017.61
2018-06-28T09:05:27.559Z,1017.61
2018-06-28T09:06:27.673Z,1017.56
2018-06-28T09:07:27.627Z,1017.52
2018-06-28T09:08:27.647Z,1017.45
2018-06-28T09:09:27.650Z,1017.54
2018-06-28T09:10:27.646Z,1017.49
2018-06-28T09:11:27.661Z,1017.43
2018-06-28T09:12:27.686Z,1017.46
2018-06-28T09:13:27.707Z,1017.46
2018-06-28T09:14:27.690Z,1017.44
2018-06-28T09:15:27.787Z,1017.43
2018-06-28T09:16:27.744Z,1017.39
2018-06-28T09:17:27.757Z,1017.45
2018-06-28T09:18:27.767Z,1017.52
2018-06-28T09:19:27.820Z,1017.40
2018-06-28T09:20:27.837Z,1017.43
2018-06-28T09:21:27.810Z,1017.47
2018-06-28T09:22:27.850Z,1017.37
2018-06-28T09:23:27.866Z,1017.39
2018-06-28T09:24:27.845Z,1017.50
2018-06-28T09:25:27.904Z,1017.48
2018-06-28T09:26:27.944Z,1017.41
2018-06-28T09:27:27.888Z,1017.35
2018-06-28T09:28:27.920Z,1017.38
2018-06-28T09:29:27.929Z,1017.41
2018-06-28T09:30:27.961Z,1017.45
2018-06-28T09:31:27.975Z,1017.39
2018-06-28T09:32:28.023Z,1017.38
2018-06-28T09:33:27.990Z,1017.42
2018-06-28T09:34:28.028Z,1017.52
2018-06-28T09:35:28.019Z,1017.47
2018-06-28T09:36:28.046Z,1017.40
2018-06-28T09:37:28.068Z,1017.34
2018-06-28T09:38:28.069Z,1017.64
2018-06-28T09:39:28.118Z,1017.52
2018-06-28T09:40:28.084Z,1017.33
2018-06-28T09:41:28.147Z,1017.24
2018-06-28T09:42:28.173Z,1017.27
2018-06-28T09:43:28.147Z,1017.28
2018-06-28T09:44:28.159Z,1017.27
2018-06-28T09:45:28.211Z,1017.38
2018-06-28T09:46:28.198Z,1017.33
2018-06-28T09:47:28.209Z,1017.19
2018-06-28T09:48:28.261Z,1017.24
2018-06-28T09:49:28.247Z,1017.30
2018-06-28T09:50:28.247Z,1017.16
2018-06-28T09:51:28.254Z,1017.26
2018-06-28T09:52:28.272Z,1017.28
2018-06-28T09:53:28.372Z,1017.30
2018-06-28T09:54:28.321Z,1017.21
2018-06-28T09:55:28.336Z,1017.29
2018-06-28T09:56:28.345Z,1017.26
2018-06-28T09:57:28.354Z,1017.27
2018-06-28T09:58:28.417Z,1017.24
2018-06-28T09:59:28.387Z,1017.23
2018-06-28T10:00:28.439Z,1017.27
2018-06-28T10:01:28.426Z,1017.27
2018-06-28T10:02:28.442Z,1017.20
2018-06-28T10:03:28.502Z,1017.26
2018-06-28T10:04:28.542Z,1017.07
2018-06-28T10:05:28.486Z,1017.21
2018-06-28T10:06:28.497Z,1017.20
2018-06-28T10:07:28.529Z,1017.33
2018-06-28T10:08:28.554Z,1017.09
2018-06-28T10:09:28.583Z,1017.20
2018-06-28T10:10:28.591Z,1017.11
2018-06-28T10:11:28.585Z,1017.06
2018-06-28T10:12:28.593Z,1017.22
2018-06-28T10:13:28.605Z,1017.21
2018-06-28T10:14:28.618Z,1017.11
2018-06-28T10:15:28.689Z,1017.11
2018-06-28T10:16:28.666Z,1017.09
2018-06-28T10:17:28.703Z,1017.02
2018-06-28T10:18:28.704Z,1016.96
2018-06-28T10:19:28.714Z,1016.92
2018-06-28T10:20:28.805Z,1017.01
2018-06-28T10:21:28.744Z,1016.96
2018-06-28T10:22:28.750Z,1016.97
2018-06-28T10:23:28.784Z,1016.89
2018-06-28T10:24:28.786Z,1016.99
2018-06-28T10:25:28.885Z,1016.94
2018-06-28T10:26:28.815Z,1017.01
2018-06-28T10:27:28.835Z,1016.97
2018-06-28T10:28:28.877Z,1017.05
2018-06-28T10:29:28.875Z,1016.99
2018-06-28T10:30:28.893Z,1016.92
2018-06-28T10:31:28.898Z,1017.00
2018-06-28T10:32:28.907Z,1017.02
2018-06-28T10:33:28.951Z,1016.88
2018-06-28T10:34:28.998Z,1016.96
2018-06-28T10:35:28.960Z,1016.93
2018-06-28T10:36:28.981Z,1016.87
2018-06-28T10:37:28.981Z,1016.82
2018-06-28T10:38:29.088Z,1016.81
2018-06-28T10:39:29.034Z,1016.80
2018-06-28T10:40:29.115Z,1016.80
2018-06-28T10:41:29.066Z,1016.76
2018-06-28T10:42:29.074Z,1016.67
2018-06-28T10:43:29.116Z,1016.85
2018-06-28T10:44:29.138Z,1017.03
2018-06-28T10:45:29.133Z,1016.77
2018-06-28T10:46:29.220Z,1016.69
2018-06-28T10:47:29.176Z,1016.73
2018-06-28T10:48:29.174Z,1016.97
2018-06-28T10:49:29.196Z,1016.65
2018-06-28T10:50:29.238Z,1016.61
2018-06-28T10:51:29.289Z,1016.55
2018-06-28T10:52:29.234Z,1016.62
2018-06-28T10:53:29.266Z,1016.66
2018-06-28T10:54:29.277Z,1016.60
2018-06-28T10:55:29.288Z,1016.71
2018-06-28T10:56:29.350Z,1016.60
2018-06-28T10:57:29.368Z,1016.55
2018-06-28T10:58:29.335Z,1016.43
2018-06-28T10:59:29.388Z,1016.68
2018-06-28T11:00:29.391Z,1016.84
2018-06-28T11:01:29.424Z,1016.51
2018-06-28T11:02:29.417Z,1016.55
2018-06-28T11:03:29.411Z,1016.55
2018-06-28T11:04:29.445Z,1016.56
2018-06-28T11:05:29.451Z,1016.48
2018-06-28T11:06:29.462Z,1016.44
2018-06-28T11:07:29.503Z,1016.53
2018-06-28T11:08:29.495Z,1016.40
2018-06-28T11:09:29.637Z,1016.45
2018-06-28T11:10:29.517Z,1016.62
2018-06-28T11:11:29.558Z,1016.66
2018-06-28T11:12:29.625Z,1016.50
2018-06-28T11:13:29.571Z,1016.43
2018-06-28T11:14:29.627Z,1016.45
2018-06-28T11:15:29.602Z,1016.59
2018-06-28T11:16:29.628Z,1016.38
2018-06-28T11:17:29.695Z,1016.57
2018-06-28T11:18:29.711Z,1016.49
2018-06-28T11:19:29.693Z,1016.56
2018-06-28T11:20:29.723Z,1016.46
2018-06-28T11:21:29.722Z,1016.53
2018-06-28T11:22:29.771Z,1016.45
2018-06-28T11:23:29.788Z,1016.57
2018-06-28T11:24:29.752Z,1016.39
2018-06-28T11:25:29.770Z,1016.35
2018-06-28T11:26:29.780Z,1016.46
2018-06-28T11:27:29.840Z,1016.47
2018-06-28T11:28:29.850Z,1016.49
2018-06-28T11:29:29.846Z,1016.35
2018-06-28T11:30:29.844Z,1016.36
2018-06-28T11:31:29.875Z,1016.46
2018-06-28T11:32:29.878Z,1016.42
2018-06-28T11:33:29.929Z,1016.32
2018-06-28T11:34:29.913Z,1016.28
2018-06-28T11:35:29.967Z,1016.21
2018-06-28T11:36:29.970Z,1016.34
2018-06-28T11:37:29.977Z,1016.36
2018-06-28T11:38:30.086Z,1016.19
2018-06-28T11:39:30.032Z,1016.18
2018-06-28T11:40:29.999Z,1016.25
2018-06-28T11:41:30.054Z,1016.19
2018-06-28T11:42:30.082Z,1016.35
2018-06-28T11:43:30.056Z,1016.20
2018-06-28T11:44:30.112Z,1016.15
2018-06-28T11:45:30.099Z,1016.23
2018-06-28T11:46:30.110Z,1016.14
2018-06-28T12:03:56.190Z,1016.05
2018-06-28T12:04:56.170Z,1016.04
2018-06-28T12:05:56.182Z,1015.95
2018-06-28T12:06:56.193Z,1015.98
2018-06-28T12:07:56.210Z,1015.87
2018-06-28T12:08:56.247Z,1015.79
2018-06-28T12:09:56.258Z,1015.96
2018-06-28T12:10:56.268Z,1015.86
2018-06-28T12:11:56.316Z,1015.91
2018-06-28T12:12:56.281Z,1015.86
2018-06-28T12:13:56.300Z,1015.98
2018-06-28T12:14:56.379Z,1016.08
2018-06-28T12:15:56.383Z,1015.85
2018-06-28T12:16:56.354Z,1015.82
2018-06-28T12:17:56.369Z,1016.02
2018-06-28T12:18:56.395Z,1015.93
2018-06-28T12:19:56.452Z,1015.81
2018-06-28T12:20:56.457Z,1015.88
2018-06-28T12:21:56.454Z,1015.91